createdAt,value
2023-04-16T00:01:14.859Z,5.88
2023-04-16T00:03:41.449Z,6.40
2023-04-16T00:06:08.062Z,5.70
2023-04-16T00:08:36.002Z,6.05
2023-04-16T00:11:02.377Z,6.88
2023-04-16T00:13:28.741Z,6.43
2023-04-16T00:15:55.147Z,5.88
2023-04-16T00:18:21.544Z,6.90
2023-04-16T00:20:48.754Z,7.15
2023-04-16T00:23:15.114Z,6.45
2023-04-16T00:25:42.761Z,7.20
2023-04-16T00:28:10.949Z,7.22
2023-04-16T00:30:37.688Z,5.82
2023-04-16T00:33:04.710Z,6.88
2023-04-16T00:35:31.141Z,6.82
2023-04-16T00:37:57.513Z,7.13
2023-04-16T00:40:27.622Z,6.63
2023-04-16T00:42:53.966Z,6.68
2023-04-16T00:45:20.511Z,6.82
2023-04-16T00:47:47.001Z,6.85
2023-04-16T00:50:14.036Z,6.63
2023-04-16T00:52:40.678Z,6.82
2023-04-16T00:55:07.618Z,6.97
2023-04-16T00:57:33.975Z,6.85
2023-04-16T01:00:00.329Z,6.57
2023-04-16T01:02:26.888Z,7.13
2023-04-16T01:04:53.383Z,7.25
2023-04-16T01:07:19.736Z,6.35
2023-04-16T01:09:46.168Z,6.70
2023-04-16T01:12:13.095Z,6.22
2023-04-16T01:14:39.446Z,6.57
2023-04-16T01:17:06.017Z,6.35
2023-04-16T01:19:32.517Z,6.35
2023-04-16T01:21:58.925Z,7.18
2023-04-16T01:24:25.252Z,6.45
2023-04-16T01:26:51.614Z,6.70
2023-04-16T01:29:17.953Z,5.95
2023-04-16T01:31:44.508Z,6.32
2023-04-16T01:34:11.006Z,6.57
2023-04-16T01:36:37.366Z,6.88
2023-04-16T01:39:04.234Z,5.90
2023-04-16T01:41:31.769Z,6.38
2023-04-16T01:43:58.154Z,6.95
2023-04-16T01:46:29.187Z,6.28
2023-04-16T01:48:56.215Z,6.32
2023-04-16T01:51:22.684Z,6.88
2023-04-16T01:53:50.108Z,6.05
2023-04-16T01:56:16.833Z,6.85
2023-04-16T01:58:43.161Z,6.50
2023-04-16T02:01:09.762Z,6.32
2023-04-16T02:03:36.314Z,6.35
2023-04-16T02:06:02.939Z,6.55
2023-04-16T02:08:29.418Z,6.78
2023-04-16T02:10:56.296Z,6.38
2023-04-16T02:13:23.308Z,8.82
2023-04-16T02:15:50.505Z,7.82
2023-04-16T02:18:16.955Z,7.25
2023-04-16T02:20:44.513Z,8.43
2023-04-16T02:23:11.712Z,7.60
2023-04-16T02:25:42.239Z,7.68
2023-04-16T02:28:09.796Z,8.02
2023-04-16T02:30:37.317Z,9.32
2023-04-16T02:33:05.507Z,7.75
2023-04-16T02:35:35.186Z,7.40
2023-04-16T02:38:02.599Z,7.53
2023-04-16T02:40:29.092Z,7.30
2023-04-16T02:42:55.688Z,7.85
2023-04-16T02:45:22.573Z,8.85
2023-04-16T02:47:49.626Z,8.35
2023-04-16T02:50:22.025Z,7.80
2023-04-16T02:52:48.662Z,8.18
2023-04-16T02:55:15.224Z,8.82
2023-04-16T02:57:42.388Z,9.50
2023-04-16T03:00:09.286Z,9.52
2023-04-16T03:02:36.047Z,9.23
2023-04-16T03:05:03.233Z,8.40
2023-04-16T03:07:29.731Z,9.32
2023-04-16T03:09:56.253Z,9.00
2023-04-16T03:12:22.683Z,9.52
2023-04-16T03:14:51.419Z,9.45
2023-04-16T03:17:17.790Z,9.98
2023-04-16T03:19:44.161Z,10.18
2023-04-16T03:22:10.720Z,10.55
2023-04-16T03:24:38.134Z,10.60
2023-04-16T03:27:04.508Z,9.68
2023-04-16T03:29:30.902Z,10.13
2023-04-16T03:31:57.604Z,9.93
2023-04-16T03:34:24.014Z,9.48
2023-04-16T03:36:50.444Z,11.15
2023-04-16T03:39:16.853Z,10.05
2023-04-16T03:41:43.241Z,9.88
2023-04-16T03:44:09.726Z,9.18
2023-04-16T03:46:36.059Z,9.30
2023-04-16T03:49:02.549Z,10.35
2023-04-16T03:51:28.937Z,10.30
2023-04-16T03:53:55.350Z,9.50
2023-04-16T03:56:21.702Z,9.48
2023-04-16T03:58:48.085Z,10.50
2023-04-16T04:01:14.458Z,11.38
2023-04-16T04:03:41.286Z,10.73
2023-04-16T04:06:08.602Z,10.38
2023-04-16T04:08:35.206Z,10.93
2023-04-16T04:11:01.525Z,10.57
2023-04-16T04:13:28.043Z,10.35
2023-04-16T04:15:54.586Z,10.60
2023-04-16T04:18:21.185Z,10.30
2023-04-16T04:20:47.662Z,10.95
2023-04-16T04:23:14.080Z,9.48
2023-04-16T04:25:40.447Z,10.25
2023-04-16T04:28:06.820Z,9.38
2023-04-16T04:30:33.389Z,9.85
2023-04-16T04:32:59.844Z,10.40
2023-04-16T04:35:26.355Z,9.27
2023-04-16T04:37:52.682Z,9.85
2023-04-16T04:40:19.210Z,9.10
2023-04-16T04:42:45.809Z,9.23
2023-04-16T04:45:12.273Z,8.93
2023-04-16T04:47:38.734Z,9.10
2023-04-16T04:50:05.770Z,9.23
2023-04-16T04:52:32.096Z,9.20
2023-04-16T04:54:58.497Z,7.95
2023-04-16T04:57:24.878Z,10.05
2023-04-16T04:59:51.364Z,10.10
2023-04-16T05:02:17.878Z,8.30
2023-04-16T05:04:44.519Z,9.82
2023-04-16T05:07:10.970Z,8.85
2023-04-16T05:09:37.542Z,8.27
2023-04-16T05:12:04.118Z,8.82
2023-04-16T05:14:30.673Z,8.73
2023-04-16T05:16:57.091Z,9.75
2023-04-16T05:19:23.499Z,8.63
2023-04-16T05:21:49.831Z,7.90
2023-04-16T05:24:16.203Z,8.38
2023-04-16T05:26:42.604Z,9.43
2023-04-16T05:29:09.239Z,8.52
2023-04-16T05:31:36.945Z,8.65
2023-04-16T05:34:03.347Z,9.40
2023-04-16T05:36:29.762Z,8.85
2023-04-16T05:38:56.108Z,9.43
2023-04-16T05:41:22.662Z,9.07
2023-04-16T05:43:49.001Z,9.15
2023-04-16T05:46:15.537Z,9.20
2023-04-16T05:48:42.560Z,10.10
2023-04-16T05:51:08.889Z,8.93
2023-04-16T05:53:35.218Z,9.55
2023-04-16T05:56:01.584Z,9.95
2023-04-16T05:58:27.942Z,9.73
2023-04-16T06:00:54.414Z,9.95
2023-04-16T06:03:20.934Z,9.48
2023-04-16T06:05:47.349Z,10.45
2023-04-16T06:08:13.703Z,9.73
2023-04-16T06:10:40.092Z,9.38
2023-04-16T06:13:06.448Z,9.52
2023-04-16T06:15:32.838Z,9.65
2023-04-16T06:18:00.878Z,9.68
2023-04-16T06:20:27.560Z,9.45
2023-04-16T06:22:53.966Z,8.50
2023-04-16T06:25:20.430Z,9.00
2023-04-16T06:27:47.037Z,8.32
2023-04-16T06:30:16.452Z,7.97
2023-04-16T06:32:43.450Z,7.18
2023-04-16T06:35:10.080Z,7.28
2023-04-16T06:37:36.415Z,6.72
2023-04-16T06:40:02.884Z,7.15
2023-04-16T06:42:29.312Z,6.90
2023-04-16T06:44:55.755Z,6.72
2023-04-16T06:47:22.216Z,7.18
2023-04-16T06:49:48.700Z,5.95
2023-04-16T06:52:15.355Z,5.80
2023-04-16T06:54:41.817Z,5.93
2023-04-16T06:57:08.150Z,5.30
2023-04-16T06:59:34.514Z,5.38
2023-04-16T07:02:01.280Z,5.90
2023-04-16T07:04:27.853Z,4.90
2023-04-16T07:06:54.285Z,6.88
2023-04-16T07:09:20.862Z,6.00
2023-04-16T07:11:47.238Z,5.72
2023-04-16T07:14:13.584Z,5.97
2023-04-16T07:16:40.577Z,5.65
2023-04-16T07:19:07.060Z,6.07
2023-04-16T07:21:33.454Z,6.43
2023-04-16T07:23:59.851Z,6.15
2023-04-16T07:26:26.268Z,6.03
2023-04-16T07:28:52.624Z,6.10
2023-04-16T07:31:19.094Z,5.65
2023-04-16T07:33:45.496Z,5.65
2023-04-16T07:36:12.242Z,5.70
2023-04-16T07:38:38.578Z,6.07
2023-04-16T07:41:05.014Z,5.68
2023-04-16T07:43:31.389Z,5.38
2023-04-16T07:45:57.794Z,5.38
2023-04-16T07:48:24.185Z,5.85
2023-04-16T07:50:50.628Z,6.63
2023-04-16T07:53:17.061Z,6.28
2023-04-16T07:55:43.510Z,6.13
2023-04-16T07:58:09.887Z,6.07
2023-04-16T08:00:36.377Z,7.05
2023-04-16T08:03:03.152Z,7.35
2023-04-16T08:05:29.657Z,8.00
2023-04-16T08:07:56.101Z,7.43
2023-04-16T08:10:22.509Z,8.85
2023-04-16T08:12:49.064Z,8.02
2023-04-16T08:15:15.403Z,7.45
2023-04-16T08:17:41.988Z,8.02
2023-04-16T08:20:08.737Z,7.70
2023-04-16T08:22:35.574Z,8.25
2023-04-16T08:25:02.781Z,8.57
2023-04-16T08:27:29.173Z,7.85
2023-04-16T08:29:55.719Z,7.65
2023-04-16T08:32:22.229Z,7.07
2023-04-16T08:34:48.713Z,8.10
2023-04-16T08:37:15.054Z,8.60
2023-04-16T08:39:41.647Z,7.60
2023-04-16T08:42:13.319Z,7.13
2023-04-16T08:44:44.327Z,8.20
2023-04-16T08:47:12.619Z,8.68
2023-04-16T08:49:44.297Z,9.02
2023-04-16T08:52:15.291Z,9.65
2023-04-16T08:55:16.775Z,9.57
2023-04-16T08:57:48.497Z,8.90
2023-04-16T09:00:16.548Z,9.15
2023-04-16T09:02:43.069Z,9.95
2023-04-16T09:05:10.975Z,9.15
2023-04-16T09:07:37.782Z,9.45
2023-04-16T09:10:05.381Z,8.10
2023-04-16T09:12:31.994Z,9.18
2023-04-16T09:15:01.133Z,8.45
2023-04-16T09:17:28.109Z,8.95
2023-04-16T09:19:54.916Z,8.98
2023-04-16T09:22:21.299Z,8.70
2023-04-16T09:24:47.642Z,8.07
2023-04-16T09:27:14.056Z,8.20
2023-04-16T09:29:41.247Z,8.40
2023-04-16T09:32:09.416Z,8.63
2023-04-16T09:34:54.252Z,8.68
2023-04-16T09:37:20.966Z,7.75
2023-04-16T09:39:55.375Z,8.18
2023-04-16T09:42:27.203Z,7.95
2023-04-16T09:44:54.079Z,8.50
2023-04-16T09:47:21.392Z,7.13
2023-04-16T09:49:48.119Z,7.00
2023-04-16T09:52:16.231Z,7.70
2023-04-16T09:54:53.183Z,6.97
2023-04-16T09:57:23.422Z,6.07
2023-04-16T09:59:53.866Z,6.55
2023-04-16T10:02:20.873Z,6.57
2023-04-16T10:04:48.008Z,6.30
2023-04-16T10:07:14.570Z,7.25
2023-04-16T10:09:41.526Z,7.38
2023-04-16T10:12:08.394Z,6.60
2023-04-16T10:14:35.502Z,6.80
2023-04-16T10:17:03.726Z,7.50
2023-04-16T10:19:31.552Z,7.22
2023-04-16T10:21:58.670Z,6.25
2023-04-16T10:24:31.859Z,6.95
2023-04-16T10:26:58.777Z,7.55
2023-04-16T10:29:27.303Z,7.95
2023-04-16T10:31:54.349Z,7.75
2023-04-16T10:34:21.397Z,7.47
2023-04-16T10:36:49.340Z,7.78
2023-04-16T10:39:20.456Z,7.78
2023-04-16T10:41:47.048Z,8.40
2023-04-16T10:44:13.456Z,8.07
2023-04-16T10:46:41.492Z,7.82
2023-04-16T10:49:24.511Z,7.10
2023-04-16T10:51:54.948Z,7.60
2023-04-16T10:54:23.110Z,7.60
2023-04-16T10:56:50.556Z,8.02
2023-04-16T10:59:21.556Z,7.68
2023-04-16T11:01:50.847Z,7.63
2023-04-16T11:04:20.409Z,7.63
2023-04-16T11:07:14.497Z,7.85
2023-04-16T11:09:56.893Z,7.97
2023-04-16T11:12:24.541Z,7.82
2023-04-16T11:15:00.406Z,8.90
2023-04-16T11:17:44.112Z,8.85
2023-04-16T11:20:24.320Z,9.10
2023-04-16T11:22:52.425Z,9.93
2023-04-16T11:25:31.483Z,10.27
2023-04-16T11:28:01.186Z,9.43
2023-04-16T11:30:39.613Z,11.40
2023-04-16T11:33:08.333Z,11.20
2023-04-16T11:35:34.770Z,10.20
2023-04-16T11:38:01.205Z,12.40
2023-04-16T11:40:33.953Z,10.65
2023-04-16T11:43:05.097Z,11.00
2023-04-16T11:45:31.979Z,11.07
2023-04-16T11:47:58.513Z,11.95
2023-04-16T11:50:27.531Z,11.60
2023-04-16T11:52:58.557Z,11.25
2023-04-16T11:55:25.361Z,10.95
2023-04-16T11:57:52.471Z,10.40
2023-04-16T12:00:23.734Z,11.38
2023-04-16T12:02:53.164Z,11.23
2023-04-16T12:05:33.651Z,10.27
2023-04-16T12:08:02.101Z,10.88
2023-04-16T12:10:29.215Z,10.00
2023-04-16T12:13:10.113Z,10.88
2023-04-16T12:15:53.272Z,11.73
2023-04-16T12:18:22.894Z,11.35
2023-04-16T12:20:52.935Z,10.48
2023-04-16T12:23:27.322Z,9.68
2023-04-16T12:25:54.227Z,10.07
2023-04-16T12:28:31.522Z,9.45
2023-04-16T12:30:58.036Z,8.10
2023-04-16T12:33:24.777Z,7.90
2023-04-16T12:35:51.301Z,8.75
2023-04-16T12:38:17.701Z,8.50
2023-04-16T12:40:44.166Z,9.63
2023-04-16T12:43:10.786Z,9.48
2023-04-16T12:45:39.563Z,9.70
2023-04-16T12:48:06.174Z,8.80
2023-04-16T12:50:32.850Z,9.18
2023-04-16T12:52:59.507Z,8.70
2023-04-16T12:55:26.035Z,8.90
2023-04-16T12:57:55.139Z,8.82
2023-04-16T13:00:21.893Z,8.80
2023-04-16T13:02:48.494Z,8.25
2023-04-16T13:05:16.475Z,8.75
2023-04-16T13:07:42.978Z,8.68
2023-04-16T13:10:09.993Z,9.40
2023-04-16T13:12:36.608Z,9.07
2023-04-16T13:15:03.083Z,9.10
2023-04-16T13:17:29.507Z,10.32
2023-04-16T13:19:55.923Z,9.07
2023-04-16T13:22:22.544Z,10.20
2023-04-16T13:24:48.956Z,9.80
2023-04-16T13:27:16.761Z,9.80
2023-04-16T13:29:43.182Z,9.80
2023-04-16T13:32:09.616Z,10.80
2023-04-16T13:34:36.046Z,10.65
2023-04-16T13:37:02.378Z,10.88
2023-04-16T13:39:28.767Z,11.10
2023-04-16T13:41:55.192Z,10.82
2023-04-16T13:44:23.606Z,11.50
2023-04-16T13:46:50.136Z,10.60
2023-04-16T13:49:16.578Z,9.07
2023-04-16T13:51:44.244Z,8.88
2023-04-16T13:54:10.691Z,9.02
2023-04-16T13:56:37.094Z,8.43
2023-04-16T13:59:03.464Z,8.70
2023-04-16T14:01:29.935Z,8.90
2023-04-16T14:03:56.527Z,8.65
2023-04-16T14:06:22.995Z,7.95
2023-04-16T14:08:49.327Z,7.93
2023-04-16T14:11:15.716Z,8.10
2023-04-16T14:13:42.054Z,7.88
2023-04-16T14:16:08.535Z,7.93
2023-04-16T14:18:35.847Z,8.10
2023-04-16T14:21:02.225Z,7.30
2023-04-16T14:23:28.895Z,7.38
2023-04-16T14:25:56.009Z,7.38
2023-04-16T14:28:22.361Z,7.13
2023-04-16T14:30:48.738Z,7.65
2023-04-16T14:33:15.210Z,7.30
2023-04-16T14:35:41.639Z,7.00
2023-04-16T14:38:08.015Z,7.53
2023-04-16T14:40:34.742Z,6.85
2023-04-16T14:43:01.085Z,6.95
2023-04-16T14:45:29.859Z,6.07
2023-04-16T14:47:57.014Z,6.53
2023-04-16T14:50:23.481Z,6.82
2023-04-16T14:52:50.698Z,6.22
2023-04-16T14:55:17.049Z,6.65
2023-04-16T14:57:43.516Z,6.43
2023-04-16T15:00:10.977Z,6.00
2023-04-16T15:02:37.842Z,6.80
2023-04-16T15:05:04.569Z,7.22
2023-04-16T15:07:31.623Z,6.18
2023-04-16T15:09:57.968Z,6.20
2023-04-16T15:12:24.712Z,6.45
2023-04-16T15:14:51.072Z,6.75
2023-04-16T15:17:17.478Z,6.18
2023-04-16T15:19:43.924Z,6.00
2023-04-16T15:22:10.274Z,6.05
2023-04-16T15:24:36.640Z,6.93
2023-04-16T15:27:02.990Z,5.63
2023-04-16T15:29:29.330Z,6.70
2023-04-16T15:31:55.817Z,6.53
2023-04-16T15:34:22.326Z,6.38
2023-04-16T15:36:48.648Z,6.18
2023-04-16T15:39:15.034Z,6.15
2023-04-16T15:41:53.568Z,5.53
2023-04-16T15:44:26.070Z,6.78
2023-04-16T15:46:52.428Z,6.63
2023-04-16T15:49:18.815Z,6.20
2023-04-16T15:51:45.210Z,6.60
2023-04-16T15:54:11.553Z,6.32
2023-04-16T15:56:37.961Z,6.20
2023-04-16T15:59:04.373Z,6.55
2023-04-16T16:01:31.157Z,6.13
2023-04-16T16:03:57.839Z,6.35
2023-04-16T16:06:24.643Z,6.80
2023-04-16T16:08:51.158Z,5.90
2023-04-16T16:11:17.540Z,6.40
2023-04-16T16:13:43.958Z,6.43
2023-04-16T16:16:10.576Z,8.25
2023-04-16T16:18:37.210Z,6.13
2023-04-16T16:21:03.669Z,6.13
2023-04-16T16:23:30.040Z,6.60
2023-04-16T16:25:56.796Z,6.72
2023-04-16T16:28:24.896Z,6.30
2023-04-16T16:30:53.677Z,6.28
2023-04-16T16:33:20.550Z,5.72
2023-04-16T16:35:46.905Z,6.28
2023-04-16T16:38:13.242Z,7.43
2023-04-16T16:40:39.646Z,6.70
2023-04-16T16:43:07.639Z,6.60
2023-04-16T16:45:34.035Z,7.07
2023-04-16T16:48:00.591Z,7.03
2023-04-16T16:50:26.962Z,6.95
2023-04-16T16:52:53.330Z,7.40
2023-04-16T16:55:20.697Z,7.85
2023-04-16T16:57:47.037Z,7.10
2023-04-16T17:00:14.962Z,7.97
2023-04-16T17:02:41.608Z,7.13
2023-04-16T17:05:08.609Z,7.82
2023-04-16T17:07:34.938Z,7.88
2023-04-16T17:10:03.740Z,7.55
2023-04-16T17:12:31.931Z,8.00
2023-04-16T17:14:58.355Z,7.95
2023-04-16T17:17:26.534Z,8.00
2023-04-16T17:19:52.877Z,8.30
2023-04-16T17:22:19.328Z,7.75
2023-04-16T17:24:45.759Z,8.65
2023-04-16T17:27:12.164Z,9.02
2023-04-16T17:29:38.537Z,7.82
2023-04-16T17:32:05.638Z,8.25
2023-04-16T17:34:32.000Z,8.93
2023-04-16T17:36:58.356Z,9.07
2023-04-16T17:39:24.696Z,8.52
2023-04-16T17:41:54.543Z,9.00
2023-04-16T17:44:21.378Z,9.45
2023-04-16T17:46:47.790Z,9.95
2023-04-16T17:49:14.153Z,9.85
2023-04-16T17:51:41.035Z,10.23
2023-04-16T17:54:07.509Z,10.23
2023-04-16T17:56:33.973Z,9.18
2023-04-16T17:59:01.144Z,9.40
2023-04-16T18:01:27.589Z,10.20
2023-04-16T18:03:54.442Z,9.52
2023-04-16T18:06:20.932Z,9.32
2023-04-16T18:08:47.345Z,10.18
2023-04-16T18:11:13.668Z,9.88
2023-04-16T18:13:40.354Z,9.90
2023-04-16T18:16:07.590Z,10.85
2023-04-16T18:18:34.103Z,9.85
2023-04-16T18:21:00.484Z,10.57
2023-04-16T18:23:27.743Z,10.05
2023-04-16T18:25:54.558Z,10.93
2023-04-16T18:28:21.334Z,10.00
2023-04-16T18:30:49.522Z,10.63
2023-04-16T18:35:45.472Z,10.77
2023-04-16T18:38:13.453Z,10.43
2023-04-16T18:40:41.450Z,9.90
2023-04-16T18:43:07.783Z,10.25
2023-04-16T18:45:34.596Z,9.95
2023-04-16T18:48:03.252Z,10.43
2023-04-16T18:50:29.847Z,10.45
2023-04-16T18:52:56.212Z,10.18
2023-04-16T18:55:22.570Z,10.73
2023-04-16T18:57:49.007Z,10.80
2023-04-16T19:00:15.547Z,11.40
2023-04-16T19:02:42.287Z,10.82
2023-04-16T19:05:09.510Z,10.77
2023-04-16T19:07:37.386Z,10.45
2023-04-16T19:10:04.770Z,64.57
2023-04-16T19:12:31.862Z,16.23
2023-04-16T19:14:58.292Z,12.20
2023-04-16T19:17:24.812Z,11.48
2023-04-16T19:19:51.298Z,11.27
2023-04-16T19:22:17.755Z,10.63
2023-04-16T19:24:44.193Z,10.80
2023-04-16T19:27:10.792Z,12.02
2023-04-16T19:29:37.158Z,10.93
2023-04-16T19:32:03.871Z,10.50
2023-04-16T19:34:30.892Z,11.02
2023-04-16T19:36:57.291Z,10.80
2023-04-16T19:39:27.714Z,11.35
2023-04-16T19:41:54.150Z,10.20
2023-04-16T19:44:23.009Z,10.05
2023-04-16T19:46:49.422Z,10.00
2023-04-16T19:49:15.937Z,10.40
2023-04-16T19:51:42.336Z,10.23
2023-04-16T19:54:09.020Z,10.35
2023-04-16T19:56:35.725Z,11.63
2023-04-16T19:59:02.659Z,10.93
2023-04-16T20:01:31.046Z,11.25
2023-04-16T20:03:57.549Z,10.65
2023-04-16T20:06:24.141Z,11.45
2023-04-16T20:08:50.599Z,10.40
2023-04-16T20:11:17.815Z,10.10
2023-04-16T20:13:47.796Z,11.43
2023-04-16T20:16:14.497Z,11.13
2023-04-16T20:18:45.997Z,12.63
2023-04-16T20:21:12.445Z,12.38
2023-04-16T20:23:38.905Z,12.88
2023-04-16T20:26:05.851Z,11.40
2023-04-16T20:28:32.273Z,11.23
2023-04-16T20:30:58.769Z,12.25
2023-04-16T20:33:25.234Z,12.23
2023-04-16T20:35:52.194Z,11.57
2023-04-16T20:38:23.554Z,11.07
2023-04-16T20:40:58.088Z,12.05
2023-04-16T20:43:25.963Z,11.50
2023-04-16T20:45:52.348Z,10.88
2023-04-16T20:48:18.811Z,11.52
2023-04-16T20:50:45.340Z,11.80
2023-04-16T20:53:12.964Z,12.82
2023-04-16T20:55:39.332Z,11.52
2023-04-16T20:58:08.395Z,11.48
2023-04-16T21:00:34.826Z,11.13
2023-04-16T21:03:01.498Z,10.75
2023-04-16T21:05:30.236Z,12.18
2023-04-16T21:07:56.695Z,11.90
2023-04-16T21:10:23.077Z,11.35
2023-04-16T21:12:49.404Z,11.90
2023-04-16T21:15:16.139Z,11.85
2023-04-16T21:17:42.613Z,12.38
2023-04-16T21:20:15.561Z,12.90
2023-04-16T21:22:41.997Z,12.30
2023-04-16T21:25:08.997Z,12.18
2023-04-16T21:27:35.444Z,12.10
2023-04-16T21:30:01.848Z,11.68
2023-04-16T21:32:28.388Z,12.93
2023-04-16T21:34:54.779Z,11.35
2023-04-16T21:37:21.102Z,11.55
2023-04-16T21:39:47.448Z,11.55
2023-04-16T21:42:13.902Z,11.57
2023-04-16T21:44:40.411Z,11.38
2023-04-16T21:47:06.785Z,11.27
2023-04-16T21:49:33.152Z,10.85
2023-04-16T21:52:02.294Z,10.43
2023-04-16T21:54:28.863Z,11.57
2023-04-16T21:56:55.211Z,12.52
2023-04-16T21:59:21.593Z,12.68
2023-04-16T22:01:48.071Z,11.68
2023-04-16T22:04:14.465Z,11.70
2023-04-16T22:06:40.842Z,13.60
2023-04-16T22:09:07.162Z,13.23
2023-04-16T22:11:33.574Z,11.70
2023-04-16T22:13:59.940Z,13.20
2023-04-16T22:16:26.655Z,12.70
2023-04-16T22:18:54.838Z,13.40
2023-04-16T22:21:21.244Z,13.57
2023-04-16T22:23:47.601Z,12.98
2023-04-16T22:26:14.749Z,13.43
2023-04-16T22:28:41.078Z,13.68
2023-04-16T22:31:07.492Z,14.05
2023-04-16T22:33:33.862Z,14.18
2023-04-16T22:36:00.568Z,14.18
2023-04-16T22:38:26.934Z,13.55
2023-04-16T22:40:53.321Z,12.35
2023-04-16T22:43:19.665Z,13.40
2023-04-16T22:45:46.296Z,13.82
2023-04-16T22:48:12.846Z,14.02
2023-04-16T22:50:39.190Z,14.57
2023-04-16T22:53:05.536Z,15.65
2023-04-16T22:55:31.939Z,14.10
2023-04-16T22:57:58.378Z,14.18
2023-04-16T23:00:24.913Z,16.23
2023-04-16T23:02:51.375Z,16.88
2023-04-16T23:05:17.927Z,16.33
2023-04-16T23:07:44.417Z,15.73
2023-04-16T23:10:11.004Z,16.65
2023-04-16T23:12:37.541Z,17.10
2023-04-16T23:15:06.338Z,17.65
2023-04-16T23:17:33.635Z,19.90
2023-04-16T23:20:00.266Z,15.90
2023-04-16T23:22:26.770Z,19.55
2023-04-16T23:24:53.262Z,17.92
2023-04-16T23:27:19.703Z,20.60
2023-04-16T23:29:46.352Z,19.38
2023-04-16T23:32:12.762Z,18.23
2023-04-16T23:34:39.223Z,19.42
2023-04-16T23:37:05.607Z,19.13
2023-04-16T23:39:32.137Z,16.50
2023-04-16T23:41:58.519Z,17.23
2023-04-16T23:44:24.929Z,18.95
2023-04-16T23:46:51.403Z,19.13
2023-04-16T23:49:17.896Z,18.85
2023-04-16T23:51:44.353Z,20.48
2023-04-16T23:54:11.104Z,17.02
2023-04-16T23:56:37.540Z,15.90
2023-04-16T23:59:03.989Z,16.58
